createdAt,value
2022-08-05T00:00:17.398Z,100045.16
2022-08-05T00:02:51.070Z,100049.84
2022-08-05T00:06:02.959Z,100046.94
2022-08-05T00:08:34.727Z,100040.09
2022-08-05T00:11:00.979Z,100037.53
2022-08-05T00:13:38.016Z,100035.97
2022-08-05T00:16:08.548Z,100038.16
2022-08-05T00:18:36.362Z,100045.84
2022-08-05T00:21:06.751Z,100045.97
2022-08-05T00:23:45.700Z,100043.66
2022-08-05T00:26:16.452Z,100050.97
2022-08-05T00:28:44.009Z,100048.88
2022-08-05T00:31:12.916Z,100038.88
2022-08-05T00:34:54.614Z,100044.50
2022-08-05T00:37:11.940Z,100043.66
2022-08-05T00:39:13.956Z,100039.38
2022-08-05T00:41:46.777Z,100041.91
2022-08-05T00:44:19.076Z,100034.50
2022-08-05T00:46:47.606Z,100038.25
2022-08-05T00:49:20.983Z,100032.28
2022-08-05T00:51:51.400Z,100038.84
2022-08-05T00:54:18.933Z,100038.13
2022-08-05T00:56:51.447Z,100039.63
2022-08-05T00:59:18.553Z,100037.44
2022-08-05T01:01:48.710Z,100026.75
2022-08-05T01:04:16.160Z,100031.06
2022-08-05T01:06:48.826Z,100030.88
2022-08-05T01:09:20.294Z,100038.91
2022-08-05T01:11:53.762Z,100032.88
2022-08-05T01:14:28.081Z,100024.56
2022-08-05T01:17:16.237Z,100036.53
2022-08-05T01:20:01.880Z,100029.97
2022-08-05T01:22:47.985Z,100027.03
2022-08-05T01:25:39.686Z,100023.38
2022-08-05T01:28:18.409Z,100026.75
2022-08-05T01:30:57.381Z,100023.84
2022-08-05T01:33:28.371Z,100028.25
2022-08-05T01:36:12.843Z,100029.88
2022-08-05T01:38:45.194Z,100024.25
2022-08-05T01:41:14.975Z,100027.19
2022-08-05T01:43:43.169Z,100023.06
2022-08-05T01:46:16.378Z,100029.44
2022-08-05T01:48:45.092Z,100036.69
2022-08-05T01:51:18.432Z,100031.72
2022-08-05T01:53:57.857Z,100028.16
2022-08-05T01:58:09.705Z,100034.00
2022-08-05T01:59:21.989Z,100035.38
2022-08-05T02:01:50.109Z,100037.00
2022-08-05T02:04:20.117Z,100036.16
2022-08-05T02:06:48.161Z,100033.09
2022-08-05T02:09:16.467Z,100034.97
2022-08-05T02:12:10.051Z,100038.75
2022-08-05T02:14:48.107Z,100038.69
2022-08-05T02:18:28.107Z,100039.66
2022-08-05T02:20:20.762Z,100031.41
2022-08-05T02:22:56.532Z,100030.38
2022-08-05T02:25:33.100Z,100030.38
2022-08-05T02:28:08.890Z,100031.34
2022-08-05T02:30:51.723Z,100030.50
2022-08-05T02:33:24.378Z,100031.72
2022-08-05T02:36:03.787Z,100032.88
2022-08-05T02:38:35.203Z,100028.09
2022-08-05T02:41:14.459Z,100035.16
2022-08-05T02:44:02.616Z,100034.84
2022-08-05T02:46:34.776Z,100033.59
2022-08-05T02:49:02.150Z,100029.00
2022-08-05T02:52:02.932Z,100028.69
2022-08-05T02:54:35.580Z,100029.44
2022-08-05T02:57:10.182Z,100027.88
2022-08-05T02:59:54.490Z,100028.59
2022-08-05T03:02:27.550Z,100023.25
2022-08-05T03:04:55.547Z,100031.38
2022-08-05T03:07:56.607Z,100025.50
2022-08-05T03:10:10.764Z,100016.53
2022-08-05T03:12:40.417Z,100014.59
2022-08-05T03:15:10.023Z,100021.09
2022-08-05T03:17:41.732Z,100018.34
2022-08-05T03:20:12.007Z,100019.84
2022-08-05T03:22:43.961Z,100014.72
2022-08-05T03:25:32.859Z,100011.94
2022-08-05T03:28:02.102Z,100019.41
2022-08-05T03:30:34.241Z,100018.75
2022-08-05T03:33:07.232Z,100014.91
2022-08-05T03:35:40.995Z,100022.19
2022-08-05T03:38:12.750Z,100017.06
2022-08-05T03:40:47.287Z,100013.75
2022-08-05T03:44:08.996Z,100012.97
2022-08-05T03:46:04.937Z,100016.00
2022-08-05T03:48:35.671Z,100012.25
2022-08-05T03:52:49.325Z,100020.38
2022-08-05T03:55:51.304Z,100012.91
2022-08-05T03:57:41.500Z,100016.84
2022-08-05T04:00:15.524Z,100019.09
2022-08-05T04:02:58.019Z,100018.56
2022-08-05T04:05:33.753Z,100009.16
2022-08-05T04:08:02.843Z,100013.84
2022-08-05T04:10:37.601Z,100017.25
2022-08-05T04:13:06.567Z,100013.22
2022-08-05T04:15:36.126Z,100015.25
2022-08-05T04:18:07.022Z,100012.56
2022-08-05T04:20:34.693Z,100019.06
2022-08-05T04:23:01.631Z,100013.38
2022-08-05T04:25:56.789Z,100013.22
2022-08-05T04:28:15.113Z,100019.41
2022-08-05T04:30:44.606Z,100016.63
2022-08-05T04:33:12.811Z,100013.41
2022-08-05T04:36:15.865Z,100012.78
2022-08-05T04:38:39.778Z,100018.38
2022-08-05T04:41:09.492Z,100010.88
2022-08-05T04:43:38.018Z,100010.88
2022-08-05T04:46:13.414Z,100018.25
2022-08-05T04:48:54.660Z,100017.69
2022-08-05T04:51:21.331Z,100014.28
2022-08-05T04:53:49.891Z,100018.34
2022-08-05T04:56:34.488Z,100021.78
2022-08-05T04:59:22.141Z,100019.09
2022-08-05T05:02:34.979Z,100012.13
2022-08-05T05:04:38.450Z,100016.31
2022-08-05T05:07:11.051Z,100016.53
2022-08-05T05:09:38.019Z,100011.09
2022-08-05T05:12:06.324Z,100011.09
2022-08-05T05:14:36.288Z,100004.69
2022-08-05T05:17:03.260Z,100012.34
2022-08-05T05:19:36.347Z,100007.31
2022-08-05T05:22:24.646Z,100007.09
2022-08-05T05:24:59.871Z,100008.25
2022-08-05T05:27:41.294Z,100014.28
2022-08-05T05:30:15.410Z,100009.47
2022-08-05T05:32:49.239Z,100004.69
2022-08-05T05:35:19.915Z,100004.13
2022-08-05T05:38:00.348Z,100002.97
2022-08-05T05:40:30.116Z,100004.22
2022-08-05T05:42:59.171Z,99998.66
2022-08-05T05:45:26.351Z,100002.84
2022-08-05T05:48:06.991Z,99998.91
2022-08-05T05:50:41.335Z,100006.66
2022-08-05T05:53:22.484Z,100006.88
2022-08-05T05:55:51.744Z,100005.97
2022-08-05T05:58:31.691Z,100003.53
2022-08-05T06:01:02.457Z,99997.94
2022-08-05T06:04:01.052Z,99998.16
2022-08-05T06:06:31.409Z,99997.63
2022-08-05T06:09:01.914Z,100002.03
2022-08-05T06:11:31.212Z,99992.53
2022-08-05T06:13:58.132Z,99997.91
2022-08-05T06:16:36.702Z,99999.09
2022-08-05T06:19:05.954Z,100002.16
2022-08-05T06:21:36.625Z,99995.97
2022-08-05T06:24:09.953Z,99999.75
2022-08-05T06:26:38.267Z,99995.97
2022-08-05T06:29:06.924Z,100003.00
2022-08-05T06:31:52.358Z,99998.66
2022-08-05T06:34:19.954Z,100004.88
2022-08-05T06:36:57.333Z,100006.38
2022-08-05T06:39:27.649Z,100009.97
2022-08-05T06:41:57.386Z,100005.63
2022-08-05T06:44:26.085Z,100004.28
2022-08-05T06:46:52.870Z,100004.25
2022-08-05T06:50:01.239Z,100003.97
2022-08-05T06:52:08.187Z,100007.00
2022-08-05T06:54:54.785Z,100011.69
2022-08-05T06:57:57.444Z,100006.81
2022-08-05T07:00:09.799Z,100005.66
2022-08-05T07:02:43.910Z,100010.34
2022-08-05T07:05:14.133Z,100008.75
2022-08-05T07:07:43.778Z,100000.81
2022-08-05T07:10:11.035Z,100010.19
2022-08-05T07:12:41.742Z,100007.94
2022-08-05T07:15:34.142Z,100007.63
2022-08-05T07:18:05.716Z,100009.50
2022-08-05T07:20:37.034Z,100014.84
2022-08-05T07:23:05.291Z,100003.53
2022-08-05T07:25:56.348Z,100002.78
2022-08-05T07:28:19.836Z,100013.75
2022-08-05T07:30:50.269Z,100009.31
2022-08-05T07:33:19.657Z,100003.06
2022-08-05T07:36:19.898Z,100006.84
2022-08-05T07:38:47.583Z,99996.69
2022-08-05T07:42:13.980Z,99999.09
2022-08-05T07:44:14.245Z,99994.34
2022-08-05T07:46:48.317Z,99999.13
2022-08-05T07:49:15.918Z,99994.97
2022-08-05T07:51:53.591Z,99994.25
2022-08-05T07:54:26.741Z,99996.13
2022-08-05T07:57:01.477Z,100001.59
2022-08-05T07:59:41.619Z,99994.16
2022-08-05T08:02:15.226Z,99998.19
2022-08-05T08:04:45.002Z,99997.22
2022-08-05T08:07:12.564Z,99994.75
2022-08-05T08:09:39.240Z,99994.63
2022-08-05T08:12:14.617Z,99997.13
2022-08-05T08:14:47.295Z,99990.75
2022-08-05T08:17:20.457Z,99997.16
2022-08-05T08:20:21.697Z,99990.06
2022-08-05T08:22:35.719Z,99995.88
2022-08-05T08:25:03.952Z,99999.88
2022-08-05T08:27:47.488Z,99990.28
2022-08-05T08:30:27.677Z,99991.25
2022-08-05T08:33:04.598Z,99987.44
2022-08-05T08:35:41.427Z,99995.72
2022-08-05T08:38:36.004Z,99992.81
2022-08-05T08:41:07.502Z,99988.72
2022-08-05T08:45:25.093Z,99990.44
2022-08-05T08:46:24.047Z,99993.97
2022-08-05T08:49:08.020Z,99991.31
2022-08-05T08:52:03.742Z,99985.16
2022-08-05T08:54:30.736Z,99978.88
2022-08-05T08:56:59.819Z,99983.47
2022-08-05T08:59:27.766Z,99983.34
2022-08-05T09:02:01.716Z,99987.91
2022-08-05T09:04:30.430Z,99992.03
2022-08-05T09:06:58.482Z,99984.16
2022-08-05T09:09:26.103Z,99987.66
2022-08-05T09:12:14.406Z,99981.28
2022-08-05T09:14:58.978Z,99974.81
2022-08-05T09:17:42.673Z,99974.03
2022-08-05T09:20:12.849Z,99971.94
2022-08-05T09:23:08.963Z,99974.53
2022-08-05T09:26:01.997Z,99973.97
2022-08-05T09:28:31.895Z,99961.28
2022-08-05T09:31:18.198Z,99959.16
2022-08-05T09:33:56.272Z,99960.28
2022-08-05T09:36:27.934Z,99960.66
2022-08-05T09:39:18.488Z,99946.09
2022-08-05T09:42:03.778Z,99952.44
2022-08-05T09:44:51.227Z,99949.97
2022-08-05T09:47:20.556Z,99943.94
2022-08-05T09:50:01.408Z,99950.31
2022-08-05T09:52:31.501Z,99937.59
2022-08-05T09:55:55.258Z,99948.38
2022-08-05T09:57:58.546Z,99940.97
2022-08-05T10:00:25.959Z,99938.81
2022-08-05T10:02:54.338Z,99934.31
2022-08-05T10:05:24.322Z,99936.75
2022-08-05T10:08:10.908Z,99937.06
2022-08-05T10:10:50.264Z,99930.34
2022-08-05T10:13:45.840Z,99927.72
2022-08-05T10:16:37.867Z,99930.59
2022-08-05T10:19:11.779Z,99920.03
2022-08-05T10:21:40.361Z,99916.09
2022-08-05T10:24:11.123Z,99920.59
2022-08-05T10:26:51.654Z,99914.94
2022-08-05T10:30:05.801Z,99906.75
2022-08-05T10:32:54.909Z,99902.59
2022-08-05T10:34:56.088Z,99908.66
2022-08-05T10:37:44.692Z,99899.38
2022-08-05T10:40:35.885Z,99895.31
2022-08-05T10:43:35.871Z,99894.72
2022-08-05T10:46:07.296Z,99898.47
2022-08-05T10:48:56.680Z,99898.03
2022-08-05T10:51:28.765Z,99908.63
2022-08-05T10:54:01.858Z,99897.78
2022-08-05T10:56:45.191Z,99899.19
2022-08-05T11:00:04.184Z,99882.59
2022-08-05T11:02:14.764Z,99891.94
2022-08-05T11:04:58.069Z,99882.19
2022-08-05T11:07:32.921Z,99882.84
2022-08-05T11:10:22.141Z,99884.75
2022-08-05T11:12:55.651Z,99879.81
2022-08-05T11:15:44.025Z,99875.41
2022-08-05T11:18:30.216Z,99881.38
2022-08-05T11:20:59.295Z,99872.56
2022-08-05T11:24:05.192Z,99873.31
2022-08-05T11:26:37.881Z,99873.94
2022-08-05T11:29:13.435Z,99864.69
2022-08-05T11:31:58.907Z,99873.75
2022-08-05T11:34:50.963Z,99868.88
2022-08-05T11:38:30.971Z,99861.97
2022-08-05T11:41:03.430Z,99859.81
2022-08-05T11:44:05.723Z,99866.03
2022-08-05T11:47:10.330Z,99862.03
2022-08-05T11:49:28.044Z,99861.75
2022-08-05T11:51:55.049Z,99851.97
2022-08-05T11:54:32.682Z,99855.56
2022-08-05T11:57:08.520Z,99854.63
2022-08-05T11:59:50.379Z,99856.09
2022-08-05T12:02:30.286Z,99866.00
2022-08-05T12:05:01.002Z,99855.19
2022-08-05T12:08:09.012Z,99852.28
2022-08-05T12:10:22.749Z,99859.69
2022-08-05T12:12:59.991Z,99862.06
2022-08-05T12:15:38.128Z,99860.91
2022-08-05T12:18:10.540Z,99855.06
2022-08-05T12:20:37.953Z,99859.59
2022-08-05T12:23:09.046Z,99846.50
2022-08-05T12:25:53.347Z,99836.25
2022-08-05T12:28:36.890Z,99842.91
2022-08-05T12:31:05.516Z,99852.94
2022-08-05T12:33:36.243Z,99852.53
2022-08-05T12:36:07.118Z,99847.38
2022-08-05T12:38:37.107Z,99845.69
2022-08-05T12:41:12.859Z,99838.34
2022-08-05T12:43:56.126Z,99833.22
2022-08-05T12:46:29.542Z,99834.72
2022-08-05T12:48:58.720Z,99826.94
2022-08-05T12:52:12.323Z,99833.38
2022-08-05T12:54:23.334Z,99829.28
2022-08-05T12:56:56.478Z,99835.72
2022-08-05T12:59:46.861Z,99826.25
2022-08-05T13:02:22.417Z,99822.91
2022-08-05T13:04:57.053Z,99820.50
2022-08-05T13:07:56.129Z,99815.84
2022-08-05T13:10:19.676Z,99805.88
2022-08-05T13:12:51.247Z,99818.28
2022-08-05T13:15:41.169Z,99808.44
2022-08-05T13:18:19.526Z,99802.34
2022-08-05T13:20:49.248Z,99803.22
2022-08-05T13:23:17.993Z,99793.78
2022-08-05T13:25:51.898Z,99797.31
2022-08-05T13:28:27.249Z,99796.66
2022-08-05T13:30:53.978Z,99793.34
2022-08-05T13:34:23.298Z,99780.72
2022-08-05T13:36:10.356Z,99788.06
2022-08-05T13:38:42.401Z,99789.94
2022-08-05T13:41:10.616Z,99787.81
2022-08-05T13:43:44.650Z,99776.88
2022-08-05T13:47:01.789Z,99775.66
2022-08-05T13:49:10.335Z,99778.19
2022-08-05T13:51:40.888Z,99781.91
2022-08-05T13:54:13.630Z,99774.63
2022-08-05T13:56:45.084Z,99760.09
2022-08-05T13:59:21.060Z,99761.34
2022-08-05T14:01:56.589Z,99755.47
2022-08-05T14:04:33.427Z,99748.56
2022-08-05T14:07:25.049Z,99750.91
2022-08-05T14:09:46.807Z,99747.47
2022-08-05T14:12:18.334Z,99743.59
2022-08-05T14:14:59.191Z,99747.03
2022-08-05T14:17:25.870Z,99746.06
2022-08-05T14:19:59.631Z,99753.28
2022-08-05T14:22:30.380Z,99753.16
2022-08-05T14:25:01.668Z,99750.63
2022-08-05T14:27:32.839Z,99734.44
2022-08-05T14:29:59.486Z,99733.47
2022-08-05T14:32:26.651Z,99733.28
2022-08-05T14:34:54.728Z,99739.72
2022-08-05T14:37:44.848Z,99727.53
2022-08-05T14:40:14.089Z,99729.81
2022-08-05T14:42:43.198Z,99727.94
2022-08-05T14:45:10.351Z,99725.91
2022-08-05T14:48:02.679Z,99723.88
2022-08-05T14:50:25.300Z,99720.28
2022-08-05T14:52:58.762Z,99712.25
2022-08-05T14:55:38.560Z,99720.38
2022-08-05T14:58:11.896Z,99717.88
2022-08-05T15:00:59.479Z,99714.09
2022-08-05T15:03:33.547Z,99711.53
2022-08-05T15:06:06.859Z,99718.47
2022-08-05T15:08:57.904Z,99712.16
2022-08-05T15:11:51.629Z,99708.97
2022-08-05T15:14:12.323Z,99704.91
2022-08-05T15:16:59.063Z,99701.38
2022-08-05T15:19:26.273Z,99699.81
2022-08-05T15:21:52.910Z,99700.53
2022-08-05T15:24:19.591Z,99693.44
2022-08-05T15:26:46.738Z,99702.63
2022-08-05T15:29:15.333Z,99691.06
2022-08-05T15:31:42.016Z,99698.41
2022-08-05T15:34:31.369Z,99693.91
2022-08-05T15:36:57.650Z,99681.09
2022-08-05T15:40:59.157Z,99683.28
2022-08-05T15:42:55.125Z,99681.78
2022-08-05T15:45:04.119Z,99683.31
2022-08-05T15:47:32.956Z,99677.56
2022-08-05T15:50:03.366Z,99675.53
2022-08-05T15:52:54.268Z,99674.00
2022-08-05T15:55:17.279Z,99667.63
2022-08-05T15:57:45.036Z,99671.94
2022-08-05T16:00:12.461Z,99677.78
2022-08-05T16:02:44.005Z,99668.66
2022-08-05T16:05:11.208Z,99674.22
2022-08-05T16:07:38.601Z,99664.50
2022-08-05T16:10:13.396Z,99672.81
2022-08-05T16:12:41.390Z,99678.03
2022-08-05T16:15:09.615Z,99670.56
2022-08-05T16:17:36.423Z,99674.16
2022-08-05T16:20:11.674Z,99669.56
2022-08-05T16:22:38.622Z,99668.91
2022-08-05T16:25:09.450Z,99678.88
2022-08-05T16:27:47.342Z,99667.69
2022-08-05T16:30:26.751Z,99676.66
2022-08-05T16:32:55.745Z,99671.72
2022-08-05T16:35:27.718Z,99673.63
2022-08-05T16:38:15.554Z,99682.69
2022-08-05T16:40:43.039Z,99672.00
2022-08-05T16:43:19.001Z,99667.34
2022-08-05T16:46:04.010Z,99669.34
2022-08-05T16:48:35.057Z,99662.66
2022-08-05T16:51:02.212Z,99666.16
2022-08-05T16:53:32.512Z,99674.72
2022-08-05T16:56:17.479Z,99662.78
2022-08-05T16:58:44.283Z,99661.53
2022-08-05T17:01:11.343Z,99660.75
2022-08-05T17:03:38.016Z,99661.84
2022-08-05T17:06:06.533Z,99665.25
2022-08-05T17:08:51.881Z,99663.69
2022-08-05T17:11:23.910Z,99670.44
2022-08-05T17:14:00.468Z,99667.06
2022-08-05T17:16:36.341Z,99670.88
2022-08-05T17:19:07.552Z,99672.66
2022-08-05T17:21:37.507Z,99675.63
2022-08-05T17:24:19.368Z,99674.94
2022-08-05T17:26:56.582Z,99673.50
2022-08-05T17:29:33.682Z,99675.56
2022-08-05T17:32:11.887Z,99677.44
2022-08-05T17:34:47.906Z,99677.16
2022-08-05T17:37:41.943Z,99683.78
2022-08-05T17:40:10.111Z,99679.56
2022-08-05T17:42:43.094Z,99675.22
2022-08-05T17:45:21.100Z,99677.41
2022-08-05T17:47:54.084Z,99685.09
2022-08-05T17:50:28.077Z,99679.81
2022-08-05T17:52:57.583Z,99678.75
2022-08-05T17:55:27.404Z,99676.00
2022-08-05T17:58:04.586Z,99675.47
2022-08-05T18:00:33.852Z,99670.25
2022-08-05T18:03:00.675Z,99672.28
2022-08-05T18:05:28.187Z,99670.50
2022-08-05T18:08:01.967Z,99670.06
2022-08-05T18:10:28.689Z,99675.88
2022-08-05T18:12:58.919Z,99673.25
2022-08-05T18:15:25.580Z,99672.72
2022-08-05T18:17:58.668Z,99671.03
2022-08-05T18:20:31.701Z,99666.69
2022-08-05T18:23:00.595Z,99672.47
2022-08-05T18:25:38.873Z,99670.91
2022-08-05T18:28:09.877Z,99666.22
2022-08-05T18:30:39.183Z,99676.59
2022-08-05T18:33:07.170Z,99680.44
2022-08-05T18:36:00.009Z,99676.34
2022-08-05T18:38:25.771Z,99672.94
2022-08-05T18:41:56.221Z,99681.44
2022-08-05T18:43:43.280Z,99677.41
2022-08-05T18:46:19.989Z,99682.88
2022-08-05T18:48:52.221Z,99687.00
2022-08-05T18:52:02.925Z,99690.13
2022-08-05T18:54:09.900Z,99691.56
2022-08-05T18:56:36.673Z,99690.25
2022-08-05T18:59:41.776Z,99685.00
2022-08-05T19:01:58.263Z,99685.53
2022-08-05T19:04:25.652Z,99689.66
2022-08-05T19:06:53.455Z,99691.34
2022-08-05T19:09:21.089Z,99699.63
2022-08-05T19:11:59.917Z,99691.19
2022-08-05T19:14:44.832Z,99696.75
2022-08-05T19:17:16.925Z,99703.22
2022-08-05T19:19:46.779Z,99701.88
2022-08-05T19:22:17.226Z,99698.81
2022-08-05T19:24:55.804Z,99698.63
2022-08-05T19:27:27.914Z,99699.53
2022-08-05T19:29:57.305Z,99703.09
2022-08-05T19:32:26.192Z,99709.84
2022-08-05T19:34:55.814Z,99702.25
2022-08-05T19:37:47.053Z,99704.28
2022-08-05T19:40:12.978Z,99706.13
2022-08-05T19:43:00.937Z,99699.88
2022-08-05T19:45:30.577Z,99707.34
2022-08-05T19:48:03.992Z,99701.59
2022-08-05T19:50:32.207Z,99701.59
2022-08-05T19:53:09.276Z,99698.56
2022-08-05T19:56:15.521Z,99694.81
2022-08-05T19:58:28.670Z,99693.41
2022-08-05T20:00:56.472Z,99690.34
2022-08-05T20:03:26.087Z,99702.53
2022-08-05T20:05:53.055Z,99702.88
2022-08-05T20:08:20.823Z,99707.28
2022-08-05T20:10:51.004Z,99699.16
2022-08-05T20:13:18.350Z,99707.13
2022-08-05T20:16:05.147Z,99707.59
2022-08-05T20:18:32.837Z,99720.09
2022-08-05T20:21:00.702Z,99711.47
2022-08-05T20:23:39.780Z,99718.38
2022-08-05T20:26:17.161Z,99715.78
2022-08-05T20:28:49.568Z,99714.94
2022-08-05T20:31:28.304Z,99715.78
2022-08-05T20:34:04.226Z,99723.75
2022-08-05T20:36:30.959Z,99724.09
2022-08-05T20:38:59.505Z,99725.75
2022-08-05T20:41:44.453Z,99726.03
2022-08-05T20:44:18.520Z,99723.19
2022-08-05T20:47:01.343Z,99717.47
2022-08-05T20:49:28.166Z,99719.50
2022-08-05T20:51:55.877Z,99723.53
2022-08-05T20:54:24.958Z,99722.78
2022-08-05T20:56:52.750Z,99718.69
2022-08-05T20:59:26.754Z,99724.31
2022-08-05T21:01:54.158Z,99721.53
2022-08-05T21:04:26.702Z,99725.06
2022-08-05T21:06:54.560Z,99732.78
2022-08-05T21:09:22.465Z,99731.06
2022-08-05T21:12:06.783Z,99731.06
2022-08-05T21:14:35.794Z,99729.34
2022-08-05T21:17:04.977Z,99726.19
2022-08-05T21:19:46.767Z,99734.44
2022-08-05T21:22:17.652Z,99738.53
2022-08-05T21:24:51.525Z,99733.97
2022-08-05T21:27:20.625Z,99737.16
2022-08-05T21:29:52.499Z,99734.63
2022-08-05T21:32:20.896Z,99733.22
2022-08-05T21:35:08.421Z,99737.56
2022-08-05T21:37:41.429Z,99742.88
2022-08-05T21:40:13.619Z,99739.78
2022-08-05T21:42:45.221Z,99748.25
2022-08-05T21:45:13.133Z,99743.63
2022-08-05T21:47:57.051Z,99747.38
2022-08-05T21:50:26.454Z,99755.44
2022-08-05T21:52:59.025Z,99752.44
2022-08-05T21:56:01.631Z,99748.38
2022-08-05T21:58:19.584Z,99746.22
2022-08-05T22:00:51.415Z,99739.13
2022-08-05T22:03:20.601Z,99746.28
2022-08-05T22:06:05.452Z,99745.25
2022-08-05T22:08:32.646Z,99745.25
2022-08-05T22:10:59.276Z,99737.47
2022-08-05T22:14:05.719Z,99748.66
2022-08-05T22:16:39.440Z,99746.94
2022-08-05T22:18:59.270Z,99756.88
2022-08-05T22:21:25.948Z,99752.09
2022-08-05T22:24:02.432Z,99757.81
2022-08-05T22:26:30.256Z,99757.69
2022-08-05T22:28:57.045Z,99753.91
2022-08-05T22:31:24.974Z,99764.00
2022-08-05T22:34:00.751Z,99760.13
2022-08-05T22:36:28.283Z,99753.50
2022-08-05T22:38:56.422Z,99754.50
2022-08-05T22:42:04.282Z,99753.06
2022-08-05T22:44:12.117Z,99758.94
2022-08-05T22:46:40.699Z,99751.56
2022-08-05T22:49:23.407Z,99755.53
2022-08-05T22:52:05.527Z,99741.50
2022-08-05T22:54:36.516Z,99743.66
2022-08-05T22:57:05.639Z,99744.69
2022-08-05T22:59:44.157Z,99747.78
2022-08-05T23:02:16.661Z,99742.97
2022-08-05T23:04:51.648Z,99743.25
2022-08-05T23:07:22.237Z,99743.25
2022-08-05T23:09:54.665Z,99744.22
2022-08-05T23:12:29.425Z,99748.19
2022-08-05T23:15:01.290Z,99743.25
2022-08-05T23:17:32.768Z,99744.97
2022-08-05T23:20:02.324Z,99746.63
2022-08-05T23:22:30.966Z,99746.91
2022-08-05T23:24:57.876Z,99742.84
2022-08-05T23:27:28.763Z,99737.59
2022-08-05T23:29:58.317Z,99746.34
2022-08-05T23:32:26.925Z,99737.84
2022-08-05T23:34:53.918Z,99739.00
2022-08-05T23:37:20.537Z,99740.66
2022-08-05T23:39:53.701Z,99737.41
2022-08-05T23:42:23.484Z,99742.19
2022-08-05T23:44:56.364Z,99737.03
2022-08-05T23:47:24.990Z,99743.09
2022-08-05T23:49:56.432Z,99741.16
2022-08-05T23:52:25.242Z,99741.47
2022-08-05T23:54:53.851Z,99739.22
2022-08-05T23:57:20.539Z,99737.66
